createdAt,value
2022-10-03T00:01:22.748Z,50.18
2022-10-03T00:04:05.806Z,50.78
2022-10-03T00:06:45.931Z,50.77
2022-10-03T00:09:34.931Z,50.57
2022-10-03T00:12:20.114Z,50.88
2022-10-03T00:15:01.101Z,50.68
2022-10-03T00:17:37.876Z,50.46
2022-10-03T00:20:31.746Z,50.88
2022-10-03T00:23:08.923Z,50.60
2022-10-03T00:25:47.976Z,50.57
2022-10-03T00:28:28.521Z,50.72
2022-10-03T00:31:11.512Z,50.40
2022-10-03T00:34:00.931Z,50.39
2022-10-03T00:36:42.510Z,50.40
2022-10-03T00:39:31.633Z,50.43
2022-10-03T00:42:35.138Z,50.47
2022-10-03T00:45:55.104Z,50.58
2022-10-03T00:49:02.106Z,50.66
2022-10-03T00:51:49.224Z,50.62
2022-10-03T00:54:33.457Z,50.59
2022-10-03T00:57:20.006Z,50.64
2022-10-03T01:00:07.405Z,50.62
2022-10-03T01:03:01.300Z,50.54
2022-10-03T01:05:47.524Z,50.42
2022-10-03T01:08:41.297Z,50.42
2022-10-03T01:11:21.915Z,50.60
2022-10-03T01:14:04.238Z,50.73
2022-10-03T01:16:43.971Z,50.55
2022-10-03T01:19:35.814Z,50.68
2022-10-03T01:22:28.501Z,51.36
2022-10-03T01:25:11.055Z,51.20
2022-10-03T01:28:06.783Z,51.47
2022-10-03T01:30:42.352Z,51.56
2022-10-03T01:33:16.141Z,51.79
2022-10-03T01:35:53.284Z,52.05
2022-10-03T01:38:29.941Z,52.20
2022-10-03T01:41:04.056Z,52.33
2022-10-03T01:43:41.943Z,52.05
2022-10-03T01:46:19.264Z,51.74
2022-10-03T01:48:59.423Z,52.31
2022-10-03T01:51:34.871Z,51.79
2022-10-03T01:54:14.497Z,51.77
2022-10-03T01:56:52.862Z,51.93
2022-10-03T01:59:31.627Z,52.20
2022-10-03T02:02:02.053Z,52.19
2022-10-03T02:04:43.807Z,52.24
2022-10-03T02:07:24.216Z,52.50
2022-10-03T02:10:06.604Z,52.56
2022-10-03T02:12:40.292Z,52.43
2022-10-03T02:15:18.842Z,53.07
2022-10-03T02:17:56.203Z,52.82
2022-10-03T02:20:42.698Z,52.99
2022-10-03T02:23:27.568Z,53.46
2022-10-03T02:26:14.730Z,53.79
2022-10-03T02:29:06.767Z,54.49
2022-10-03T02:32:09.383Z,54.25
2022-10-03T02:35:12.202Z,54.26
2022-10-03T02:38:08.964Z,54.53
2022-10-03T02:41:02.261Z,54.38
2022-10-03T02:44:02.074Z,54.76
2022-10-03T02:47:17.329Z,54.50
2022-10-03T02:50:18.726Z,54.70
2022-10-03T02:53:22.838Z,54.68
2022-10-03T02:56:31.310Z,54.75
2022-10-03T02:59:27.443Z,55.29
2022-10-03T03:02:29.930Z,54.63
2022-10-03T03:05:52.926Z,54.66
2022-10-03T03:08:47.038Z,54.81
2022-10-03T03:11:39.195Z,54.61
2022-10-03T03:14:46.787Z,54.62
2022-10-03T03:17:30.640Z,54.63
2022-10-03T03:20:20.450Z,54.62
2022-10-03T03:23:15.701Z,54.57
2022-10-03T03:26:12.809Z,54.58
2022-10-03T03:28:55.838Z,54.75
2022-10-03T03:31:34.992Z,54.53
2022-10-03T03:34:16.074Z,54.92
2022-10-03T03:36:54.155Z,54.90
2022-10-03T03:39:45.514Z,54.91
2022-10-03T03:42:34.867Z,54.98
2022-10-03T03:45:22.206Z,54.88
2022-10-03T03:48:07.988Z,54.91
2022-10-03T03:50:56.693Z,55.08
2022-10-03T03:53:39.690Z,55.03
2022-10-03T03:56:29.611Z,54.90
2022-10-03T03:59:12.256Z,54.82
2022-10-03T04:02:04.761Z,54.79
2022-10-03T04:04:51.959Z,54.97
2022-10-03T04:07:39.307Z,54.80
2022-10-03T04:10:31.160Z,54.84
2022-10-03T04:13:22.370Z,55.24
2022-10-03T04:16:40.026Z,55.09
2022-10-03T04:19:19.391Z,55.19
2022-10-03T04:22:08.807Z,55.11
2022-10-03T04:25:01.297Z,54.88
2022-10-03T04:27:53.932Z,54.87
2022-10-03T04:30:31.894Z,54.67
2022-10-03T04:33:12.367Z,54.57
2022-10-03T04:36:09.202Z,54.55
2022-10-03T04:38:49.548Z,54.39
2022-10-03T04:41:27.557Z,54.33
2022-10-03T04:44:05.522Z,54.40
2022-10-03T04:46:43.434Z,54.18
2022-10-03T04:49:20.114Z,54.18
2022-10-03T04:51:57.617Z,54.16
2022-10-03T04:54:40.119Z,54.29
2022-10-03T04:57:21.405Z,54.23
2022-10-03T04:59:58.092Z,54.05
2022-10-03T05:02:37.354Z,54.04
2022-10-03T05:05:23.513Z,53.84
2022-10-03T05:08:04.407Z,53.82
2022-10-03T05:10:51.590Z,53.67
2022-10-03T05:13:32.366Z,53.70
2022-10-03T05:16:09.610Z,53.68
2022-10-03T05:18:46.721Z,53.68
2022-10-03T05:21:27.366Z,53.63
2022-10-03T05:24:02.892Z,53.70
2022-10-03T05:26:46.122Z,53.64
2022-10-03T05:29:31.332Z,53.44
2022-10-03T05:32:12.844Z,53.35
2022-10-03T05:35:01.187Z,53.27
2022-10-03T05:37:59.382Z,53.37
2022-10-03T05:40:33.504Z,53.39
2022-10-03T05:43:18.836Z,53.39
2022-10-03T05:45:54.261Z,53.40
2022-10-03T05:48:41.098Z,53.18
2022-10-03T05:51:37.005Z,53.10
2022-10-03T05:54:43.219Z,53.23
2022-10-03T05:57:46.384Z,53.38
2022-10-03T06:00:24.504Z,53.33
2022-10-03T06:03:30.759Z,53.38
2022-10-03T06:06:20.403Z,53.24
2022-10-03T06:09:09.553Z,53.41
2022-10-03T06:12:09.454Z,53.61
2022-10-03T06:15:05.116Z,53.62
2022-10-03T06:18:00.257Z,53.70
2022-10-03T06:21:02.878Z,53.79
2022-10-03T06:23:57.651Z,54.02
2022-10-03T06:26:58.065Z,54.17
2022-10-03T06:29:52.466Z,54.22
2022-10-03T06:33:04.508Z,54.31
2022-10-03T06:36:05.213Z,54.41
2022-10-03T06:39:09.101Z,54.36
2022-10-03T06:42:19.197Z,54.57
2022-10-03T06:45:20.069Z,54.61
2022-10-03T06:48:13.853Z,54.88
2022-10-03T06:51:04.469Z,55.13
2022-10-03T06:53:43.757Z,55.14
2022-10-03T06:56:37.982Z,54.96
2022-10-03T06:59:53.753Z,55.05
2022-10-03T07:02:56.578Z,55.50
2022-10-03T07:05:58.659Z,55.38
2022-10-03T07:08:57.242Z,55.34
2022-10-03T07:11:44.035Z,55.55
2022-10-03T07:14:52.725Z,55.72
2022-10-03T07:17:38.571Z,55.82
2022-10-03T07:20:47.566Z,55.66
2022-10-03T07:23:49.013Z,55.64
2022-10-03T07:26:45.096Z,55.90
2022-10-03T07:29:22.906Z,55.58
2022-10-03T07:32:10.948Z,55.75
2022-10-03T07:35:24.528Z,55.83
2022-10-03T07:38:51.787Z,55.93
2022-10-03T07:41:43.766Z,55.65
2022-10-03T07:44:42.264Z,55.65
2022-10-03T07:47:45.253Z,55.48
2022-10-03T07:51:06.112Z,55.26
2022-10-03T07:54:17.283Z,55.10
2022-10-03T07:57:21.488Z,55.07
2022-10-03T08:00:17.704Z,55.27
2022-10-03T08:03:29.267Z,55.01
2022-10-03T08:06:23.090Z,54.85
2022-10-03T08:09:28.744Z,55.12
2022-10-03T08:12:21.339Z,54.81
2022-10-03T08:15:04.501Z,54.58
2022-10-03T08:18:14.473Z,54.26
2022-10-03T08:20:52.798Z,54.12
2022-10-03T08:23:45.066Z,54.40
2022-10-03T08:26:21.857Z,54.41
2022-10-03T08:29:09.546Z,54.44
2022-10-03T08:31:59.089Z,54.60
2022-10-03T08:34:58.385Z,54.64
2022-10-03T08:38:06.423Z,54.86
2022-10-03T08:41:14.628Z,54.59
2022-10-03T08:44:30.457Z,54.85
2022-10-03T08:47:37.580Z,54.73
2022-10-03T08:50:49.634Z,54.73
2022-10-03T08:53:53.416Z,54.72
2022-10-03T08:56:32.371Z,54.63
2022-10-03T08:59:30.608Z,54.47
2022-10-03T09:02:25.024Z,54.48
2022-10-03T09:05:33.734Z,54.85
2022-10-03T09:08:44.295Z,55.27
2022-10-03T09:11:47.110Z,55.44
2022-10-03T09:14:36.995Z,55.79
2022-10-03T09:17:22.185Z,55.92
2022-10-03T09:20:19.858Z,56.08
2022-10-03T09:23:32.704Z,56.17
2022-10-03T09:26:29.500Z,56.10
2022-10-03T09:29:17.710Z,56.02
2022-10-03T09:32:36.497Z,56.03
2022-10-03T09:35:35.000Z,56.55
2022-10-03T09:38:22.897Z,56.88
2022-10-03T09:41:27.830Z,57.29
2022-10-03T09:44:36.395Z,57.26
2022-10-03T09:47:38.127Z,57.88
2022-10-03T09:50:41.315Z,57.73
2022-10-03T09:53:32.452Z,57.78
2022-10-03T09:56:41.074Z,57.80
2022-10-03T09:59:33.649Z,57.69
2022-10-03T10:02:24.820Z,57.27
2022-10-03T10:05:08.874Z,57.17
2022-10-03T10:08:04.134Z,57.21
2022-10-03T10:10:57.343Z,57.99
2022-10-03T10:14:17.807Z,58.61
2022-10-03T10:17:37.371Z,58.84
2022-10-03T10:20:24.728Z,58.87
2022-10-03T10:23:31.294Z,58.57
2022-10-03T10:26:36.582Z,58.10
2022-10-03T10:29:51.457Z,58.39
2022-10-03T10:33:08.949Z,57.96
2022-10-03T10:36:23.718Z,58.39
2022-10-03T10:39:27.461Z,58.82
2022-10-03T10:42:46.056Z,58.43
2022-10-03T10:45:45.443Z,58.51
2022-10-03T10:48:49.634Z,58.54
2022-10-03T10:51:47.135Z,58.37
2022-10-03T10:54:55.542Z,58.44
2022-10-03T10:57:31.125Z,57.47
2022-10-03T11:00:21.610Z,57.45
2022-10-03T11:03:30.772Z,57.00
2022-10-03T11:06:35.508Z,57.42
2022-10-03T11:09:59.657Z,56.82
2022-10-03T11:13:00.413Z,56.81
2022-10-03T11:16:10.242Z,56.54
2022-10-03T11:19:24.668Z,56.11
2022-10-03T11:22:25.655Z,56.11
2022-10-03T11:25:31.816Z,55.99
2022-10-03T11:28:28.672Z,55.62
2022-10-03T11:31:28.338Z,54.57
2022-10-03T11:34:35.988Z,55.04
2022-10-03T11:37:09.771Z,55.32
2022-10-03T11:39:47.307Z,55.22
2022-10-03T11:42:29.220Z,55.02
2022-10-03T11:45:00.536Z,53.70
2022-10-03T11:47:44.921Z,53.42
2022-10-03T11:50:32.761Z,53.95
2022-10-03T11:53:14.464Z,53.99
2022-10-03T11:55:47.766Z,53.77
2022-10-03T11:58:31.965Z,53.68
2022-10-03T12:01:17.876Z,53.52
2022-10-03T12:03:53.743Z,52.77
2022-10-03T12:06:58.276Z,52.30
2022-10-03T12:09:37.881Z,51.66
2022-10-03T12:12:15.943Z,50.96
2022-10-03T12:14:49.320Z,49.60
2022-10-03T12:17:29.182Z,49.24
2022-10-03T12:20:05.603Z,49.69
2022-10-03T12:22:45.811Z,49.56
2022-10-03T12:25:23.592Z,48.22
2022-10-03T12:28:01.966Z,47.10
2022-10-03T12:30:40.699Z,46.99
2022-10-03T12:33:32.365Z,46.95
2022-10-03T12:36:09.441Z,47.09
2022-10-03T12:38:52.410Z,46.87
2022-10-03T12:41:35.888Z,46.88
2022-10-03T12:44:20.969Z,46.92
2022-10-03T12:47:03.021Z,48.19
2022-10-03T12:49:57.322Z,48.83
2022-10-03T12:52:31.728Z,49.67
2022-10-03T12:55:19.488Z,50.23
2022-10-03T12:57:59.621Z,50.76
2022-10-03T13:00:33.750Z,51.15
2022-10-03T13:03:21.111Z,51.69
2022-10-03T13:06:16.098Z,52.18
2022-10-03T13:09:08.898Z,52.27
2022-10-03T13:11:50.117Z,52.32
2022-10-03T13:14:32.514Z,52.26
2022-10-03T13:17:12.576Z,52.46
2022-10-03T13:19:51.339Z,52.25
2022-10-03T13:22:36.993Z,51.96
2022-10-03T13:25:22.145Z,51.78
2022-10-03T13:28:01.146Z,51.56
2022-10-03T13:30:32.565Z,51.93
2022-10-03T13:33:11.572Z,52.02
2022-10-03T13:35:59.627Z,52.25
2022-10-03T13:39:09.667Z,52.12
2022-10-03T13:41:59.088Z,51.52
2022-10-03T13:44:37.450Z,50.97
2022-10-03T13:47:25.342Z,50.94
2022-10-03T13:49:58.381Z,51.19
2022-10-03T13:52:40.015Z,51.04
2022-10-03T13:55:21.717Z,51.55
2022-10-03T13:58:07.422Z,51.37
2022-10-03T14:00:51.861Z,50.87
2022-10-03T14:03:30.471Z,51.03
2022-10-03T14:06:12.354Z,50.57
2022-10-03T14:08:58.302Z,49.75
2022-10-03T14:11:39.209Z,49.32
2022-10-03T14:14:57.461Z,49.01
2022-10-03T14:17:36.768Z,48.03
2022-10-03T14:20:16.741Z,47.14
2022-10-03T14:22:58.161Z,46.06
2022-10-03T14:25:32.176Z,45.62
2022-10-03T14:28:10.070Z,45.16
2022-10-03T14:31:05.422Z,44.01
2022-10-03T14:33:43.852Z,44.66
2022-10-03T14:36:30.130Z,44.17
2022-10-03T14:39:25.400Z,44.04
2022-10-03T14:42:25.165Z,44.30
2022-10-03T14:44:57.897Z,43.59
2022-10-03T14:47:34.246Z,42.86
2022-10-03T14:50:04.877Z,42.34
2022-10-03T14:52:41.833Z,42.45
2022-10-03T14:55:18.071Z,42.28
2022-10-03T14:58:09.807Z,42.88
2022-10-03T15:00:43.155Z,43.78
2022-10-03T15:03:33.017Z,44.27
2022-10-03T15:06:20.617Z,44.45
2022-10-03T15:08:52.759Z,44.67
2022-10-03T15:11:27.213Z,44.83
2022-10-03T15:14:02.181Z,44.98
2022-10-03T15:16:36.811Z,45.15
2022-10-03T15:19:09.785Z,45.87
2022-10-03T15:21:45.028Z,46.28
2022-10-03T15:24:25.066Z,46.12
2022-10-03T15:27:04.493Z,45.97
2022-10-03T15:29:34.625Z,46.58
2022-10-03T15:32:07.922Z,46.81
2022-10-03T15:34:41.659Z,47.55
2022-10-03T15:37:18.354Z,47.80
2022-10-03T15:39:52.099Z,48.42
2022-10-03T15:42:30.142Z,48.42
2022-10-03T15:45:00.371Z,48.66
2022-10-03T15:47:31.851Z,48.47
2022-10-03T15:50:06.607Z,49.02
2022-10-03T15:52:40.969Z,49.65
2022-10-03T15:55:19.269Z,49.58
2022-10-03T15:57:50.878Z,49.29
2022-10-03T16:00:27.650Z,49.41
2022-10-03T16:03:08.346Z,49.60
2022-10-03T16:05:49.270Z,49.89
2022-10-03T16:08:22.425Z,49.95
2022-10-03T16:11:05.608Z,50.24
2022-10-03T16:13:38.953Z,50.38
2022-10-03T16:16:17.231Z,50.42
2022-10-03T16:18:57.456Z,50.71
2022-10-03T16:21:47.652Z,50.82
2022-10-03T16:24:43.904Z,50.44
2022-10-03T16:27:19.186Z,50.77
2022-10-03T16:29:57.740Z,51.50
2022-10-03T16:32:28.056Z,51.92
2022-10-03T16:35:01.017Z,52.58
2022-10-03T16:37:32.860Z,52.12
2022-10-03T16:40:05.552Z,52.59
2022-10-03T16:42:43.193Z,52.91
2022-10-03T16:45:25.399Z,53.31
2022-10-03T16:48:14.854Z,53.48
2022-10-03T16:50:49.301Z,53.99
2022-10-03T16:53:20.958Z,53.79
2022-10-03T16:55:57.877Z,53.55
2022-10-03T16:58:32.837Z,53.84
2022-10-03T17:04:00.118Z,53.85
2022-10-03T17:06:32.733Z,53.99
2022-10-03T17:09:07.692Z,54.18
2022-10-03T17:11:39.941Z,54.22
2022-10-03T17:14:10.664Z,54.33
2022-10-03T17:16:46.843Z,54.47
2022-10-03T17:19:33.389Z,54.63
2022-10-03T17:22:13.159Z,54.62
2022-10-03T17:24:48.837Z,54.68
2022-10-03T17:27:23.906Z,54.74
2022-10-03T17:30:02.083Z,54.75
2022-10-03T17:32:36.143Z,54.76
2022-10-03T17:35:12.460Z,54.78
2022-10-03T17:38:30.822Z,54.93
2022-10-03T17:41:14.543Z,55.00
2022-10-03T17:43:49.114Z,55.03
2022-10-03T17:46:25.560Z,55.04
2022-10-03T17:49:02.144Z,55.32
2022-10-03T17:51:38.403Z,55.60
2022-10-03T17:54:15.063Z,56.00
2022-10-03T17:56:51.289Z,56.35
2022-10-03T17:59:27.572Z,56.53
2022-10-03T18:02:04.960Z,56.44
2022-10-03T18:04:39.513Z,56.42
2022-10-03T18:07:12.783Z,56.66
2022-10-03T18:09:48.285Z,56.26
2022-10-03T18:12:29.547Z,56.38
2022-10-03T18:15:20.765Z,56.77
2022-10-03T18:18:04.064Z,56.71
2022-10-03T18:20:44.749Z,56.81
2022-10-03T18:23:53.377Z,56.82
2022-10-03T18:26:29.423Z,56.97
2022-10-03T18:29:15.103Z,56.91
2022-10-03T18:31:49.059Z,57.01
2022-10-03T18:34:20.587Z,57.16
2022-10-03T18:36:53.449Z,56.94
2022-10-03T18:39:27.156Z,57.25
2022-10-03T18:41:58.646Z,57.22
2022-10-03T18:44:30.315Z,57.37
2022-10-03T18:47:13.710Z,57.42
2022-10-03T18:49:52.030Z,57.45
2022-10-03T18:52:28.417Z,57.45
2022-10-03T18:55:01.798Z,57.90
2022-10-03T18:57:39.511Z,57.82
2022-10-03T19:00:17.886Z,57.84
2022-10-03T19:02:52.229Z,58.08
2022-10-03T19:05:24.800Z,58.34
2022-10-03T19:08:02.551Z,57.60
2022-10-03T19:10:42.715Z,56.77
2022-10-03T19:13:28.425Z,56.44
2022-10-03T19:16:21.846Z,56.49
2022-10-03T19:19:02.202Z,56.45
2022-10-03T19:21:37.312Z,55.80
2022-10-03T19:24:17.814Z,55.49
2022-10-03T19:26:55.560Z,55.64
2022-10-03T19:29:34.886Z,55.54
2022-10-03T19:32:18.611Z,55.43
2022-10-03T19:34:57.222Z,55.32
2022-10-03T19:37:44.431Z,55.17
2022-10-03T19:40:37.049Z,54.95
2022-10-03T19:43:29.686Z,54.85
2022-10-03T19:46:23.738Z,54.83
2022-10-03T19:49:16.724Z,54.88
2022-10-03T19:51:50.168Z,54.99
2022-10-03T19:54:43.705Z,54.83
2022-10-03T19:57:20.482Z,54.89
2022-10-03T19:59:56.343Z,55.09
2022-10-03T20:02:27.642Z,55.19
2022-10-03T20:05:00.240Z,55.35
2022-10-03T20:07:46.437Z,55.53
2022-10-03T20:10:42.489Z,55.71
2022-10-03T20:13:15.072Z,56.21
2022-10-03T20:15:49.231Z,56.38
2022-10-03T20:18:27.632Z,56.54
2022-10-03T20:21:04.722Z,56.90
2022-10-03T20:23:38.176Z,56.95
2022-10-03T20:26:24.391Z,57.04
2022-10-03T20:29:23.025Z,57.13
2022-10-03T20:31:58.089Z,57.55
2022-10-03T20:34:30.866Z,57.75
2022-10-03T20:37:36.947Z,58.29
2022-10-03T20:40:21.385Z,58.57
2022-10-03T20:42:53.355Z,58.86
2022-10-03T20:45:27.530Z,58.99
2022-10-03T20:48:03.038Z,58.96
2022-10-03T20:50:35.370Z,59.00
2022-10-03T20:53:11.309Z,59.06
2022-10-03T20:55:48.032Z,59.08
2022-10-03T20:58:24.333Z,59.29
2022-10-03T21:00:59.843Z,59.53
2022-10-03T21:03:35.175Z,59.47
2022-10-03T21:06:15.074Z,59.52
2022-10-03T21:08:44.799Z,59.65
2022-10-03T21:11:21.556Z,59.49
2022-10-03T21:13:56.479Z,59.49
2022-10-03T21:16:29.641Z,59.59
2022-10-03T21:19:01.844Z,59.75
2022-10-03T21:21:42.213Z,59.79
2022-10-03T21:24:18.765Z,59.84
2022-10-03T21:26:52.842Z,59.65
2022-10-03T21:29:30.652Z,59.70
2022-10-03T21:32:11.812Z,59.67
2022-10-03T21:34:47.421Z,59.61
2022-10-03T21:37:25.257Z,59.67
2022-10-03T21:40:06.700Z,59.94
2022-10-03T21:42:45.549Z,59.99
2022-10-03T21:45:27.020Z,60.27
2022-10-03T21:48:03.410Z,59.95
2022-10-03T21:50:42.769Z,59.43
2022-10-03T21:53:19.372Z,59.15
2022-10-03T21:56:11.153Z,58.77
2022-10-03T21:59:10.423Z,58.52
2022-10-03T22:01:51.090Z,57.86
2022-10-03T22:04:42.754Z,57.60
2022-10-03T22:07:28.595Z,57.49
2022-10-03T22:09:58.711Z,57.42
2022-10-03T22:12:40.813Z,57.48
2022-10-03T22:15:19.044Z,57.17
2022-10-03T22:17:54.181Z,56.93
2022-10-03T22:20:25.093Z,57.07
2022-10-03T22:23:06.454Z,57.17
2022-10-03T22:26:03.647Z,57.04
2022-10-03T22:28:48.418Z,57.09
2022-10-03T22:31:26.944Z,57.21
2022-10-03T22:34:06.933Z,57.35
2022-10-03T22:36:37.630Z,57.50
2022-10-03T22:39:10.816Z,57.48
2022-10-03T22:41:42.175Z,57.48
2022-10-03T22:44:14.926Z,57.31
2022-10-03T22:46:51.083Z,57.39
2022-10-03T22:49:23.953Z,57.36
2022-10-03T22:51:56.608Z,57.15
2022-10-03T22:54:33.759Z,57.08
2022-10-03T22:57:07.460Z,57.18
2022-10-03T22:59:42.996Z,57.28
2022-10-03T23:02:12.686Z,57.21
2022-10-03T23:04:47.526Z,57.06
2022-10-03T23:07:37.574Z,56.95
2022-10-03T23:10:20.771Z,56.95
2022-10-03T23:12:55.874Z,56.96
2022-10-03T23:15:26.818Z,57.00
2022-10-03T23:18:37.470Z,56.99
2022-10-03T23:21:08.547Z,57.21
2022-10-03T23:24:00.143Z,57.04
2022-10-03T23:26:44.894Z,57.23
2022-10-03T23:29:16.300Z,57.51
2022-10-03T23:31:54.936Z,57.44
2022-10-03T23:34:51.683Z,57.24
2022-10-03T23:37:37.682Z,57.03
2022-10-03T23:40:35.164Z,57.04
2022-10-03T23:43:22.527Z,57.18
2022-10-03T23:45:53.537Z,57.19
2022-10-03T23:48:39.553Z,57.32
2022-10-03T23:51:13.455Z,57.34
2022-10-03T23:53:46.443Z,57.55
2022-10-03T23:56:37.099Z,57.79
2022-10-03T23:59:21.492Z,57.51
